Time;durP1;ratioP1;P1;durP2;ratioP2;P2;SDS_P1;SDS_P2;PMS_P1;PMS_P2;Temp;Humidity;BMP_temperature;BMP_pressure;BME280_temperature;BME280_humidity;BME280_pressure;Samples;Min_cycle;Max_cycle;Signal;HPM_P1;HPM_P2
2022/05/05 00:01:43;;;;;;;13.98;8.98;;;;;;;11.95;62.10;101735.97;3573250;40;20075;-65
2022/05/05 00:04:09;;;;;;;16.38;9.32;;;;;;;11.85;61.78;101724.81;3572721;40;20056;-65
2022/05/05 00:06:36;;;;;;;16.63;9.57;;;;;;;11.82;61.94;101723.09;3571780;40;20092;-65
2022/05/05 00:09:04;;;;;;;13.48;10.10;;;;;;;11.85;61.76;101738.28;3574206;40;20054;-65
2022/05/05 00:14:24;;;;;;;15.85;9.85;;;;;;;11.75;61.96;101736.97;3575227;40;20099;-64
2022/05/05 00:17:01;;;;;;;14.98;9.68;;;;;;;11.64;63.02;101748.31;3571226;40;20070;-65
2022/05/05 00:19:32;;;;;;;15.77;9.32;;;;;;;11.53;63.00;101739.91;3573082;40;20096;-65
2022/05/05 00:21:58;;;;;;;15.60;9.60;;;;;;;11.40;62.73;101720.81;3563239;40;20142;-65
2022/05/05 00:24:24;;;;;;;13.68;9.13;;;;;;;11.50;62.71;101734.69;3572284;40;20041;-65
2022/05/05 00:26:50;;;;;;;14.68;9.95;;;;;;;11.39;63.36;101738.78;3570485;40;20072;-65
2022/05/05 00:29:16;;;;;;;16.52;9.85;;;;;;;11.43;63.22;101747.59;3572214;40;20090;-65
2022/05/05 00:31:47;;;;;;;15.65;9.98;;;;;;;11.19;63.79;101706.63;3570629;40;20064;-65
2022/05/05 00:34:13;;;;;;;15.38;9.57;;;;;;;11.25;63.66;101719.75;3567920;40;20092;-65
2022/05/05 00:36:39;;;;;;;13.43;9.23;;;;;;;11.17;63.33;101707.66;3569979;40;20061;-66
2022/05/05 00:39:07;;;;;;;13.63;10.02;;;;;;;11.34;64.38;101742.66;3567240;40;20049;-65
2022/05/05 00:41:34;;;;;;;14.88;9.85;;;;;;;11.08;64.18;101699.09;3570336;40;20094;-64
2022/05/05 00:44:04;;;;;;;15.27;9.68;;;;;;;11.25;64.33;101735.91;3572750;40;20063;-65
2022/05/05 00:46:30;;;;;;;14.40;10.32;;;;;;;11.17;64.69;101713.91;3570628;40;20567;-65
2022/05/05 00:48:56;;;;;;;15.40;8.90;;;;;;;11.22;63.94;101730.69;3569470;40;20056;-66
2022/05/05 00:51:22;;;;;;;14.25;9.93;;;;;;;11.24;64.53;101727.94;3571855;40;20045;-65
2022/05/05 00:53:48;;;;;;;14.57;9.63;;;;;;;11.24;64.17;101731.50;3570322;40;20071;-65
2022/05/05 00:56:16;;;;;;;14.18;9.73;;;;;;;11.03;65.13;101711.03;3571299;40;20072;-65
2022/05/05 00:58:46;;;;;;;13.15;9.77;;;;;;;11.08;65.32;101714.38;3570142;40;20052;-64
2022/05/05 01:01:18;;;;;;;16.55;10.38;;;;;;;11.12;66.48;101734.78;3571601;40;20328;-65
2022/05/05 01:03:45;;;;;;;16.50;10.18;;;;;;;11.05;66.68;101726.16;3570201;40;20122;-65
2022/05/05 01:06:15;;;;;;;19.88;9.48;;;;;;;10.95;66.44;101713.25;3572631;40;20071;-65
2022/05/05 01:08:42;;;;;;;19.55;10.05;;;;;;;11.00;66.44;101720.13;3569184;40;20045;-65
2022/05/05 01:11:08;;;;;;;15.52;9.40;;;;;;;11.11;66.82;101735.75;3572344;40;20177;-65
2022/05/05 01:13:39;;;;;;;15.43;10.35;;;;;;;11.10;66.44;101731.28;3569254;40;20072;-65
2022/05/05 01:16:06;;;;;;;17.25;9.82;;;;;;;11.09;66.70;101721.47;3570478;40;20138;-65
2022/05/05 01:18:32;;;;;;;16.35;10.40;;;;;;;11.05;66.26;101704.63;3571429;40;20300;-65
2022/05/05 01:20:58;;;;;;;14.13;10.13;;;;;;;11.19;67.03;101730.84;3569309;40;20065;-64
2022/05/05 01:23:24;;;;;;;17.38;9.55;;;;;;;11.12;66.79;101718.66;3571558;40;20048;-64
2022/05/05 01:28:43;;;;;;;12.30;9.25;;;;;;;11.21;66.76;101726.25;3571782;40;20123;-63
2022/05/05 01:31:09;;;;;;;16.52;10.10;;;;;;;11.17;67.85;101719.28;3570741;40;20105;-64
2022/05/05 01:33:35;;;;;;;17.63;10.30;;;;;;;11.01;68.54;101691.41;3568972;40;20387;-65
2022/05/05 01:36:01;;;;;;;16.92;9.90;;;;;;;11.19;67.68;101728.16;3571455;40;20061;-65
2022/05/05 01:38:36;;;;;;;17.13;10.07;;;;;;;11.09;68.10;101705.34;3571330;40;20113;-65
2022/05/05 01:41:10;;;;;;;17.30;10.02;;;;;;;11.20;67.73;101718.28;3572182;40;20434;-64
2022/05/05 01:43:38;;;;;;;17.70;10.32;;;;;;;11.26;67.82;101726.91;3569322;40;20062;-66
2022/05/05 01:46:05;;;;;;;15.73;10.05;;;;;;;11.27;66.97;101731.34;3566493;40;20078;-64
2022/05/05 01:48:32;;;;;;;13.82;10.13;;;;;;;11.27;66.49;101735.84;3570137;40;20089;-65
2022/05/05 01:50:58;;;;;;;17.63;10.38;;;;;;;11.27;66.58;101730.47;3570575;40;20341;-65
2022/05/05 01:53:24;;;;;;;15.05;9.60;;;;;;;11.28;67.07;101730.38;3571160;40;20100;-65
2022/05/05 01:55:50;;;;;;;15.20;10.43;;;;;;;11.30;66.70;101736.56;3568798;40;20151;-65
2022/05/05 01:58:17;;;;;;;17.98;10.20;;;;;;;11.28;67.21;101729.50;3570473;40;20377;-65
2022/05/05 02:00:43;;;;;;;14.90;9.85;;;;;;;11.20;67.15;101721.84;3569727;40;20055;-64
2022/05/05 02:03:15;;;;;;;15.07;9.98;;;;;;;11.31;66.82;101732.06;3571619;40;20053;-64
2022/05/05 02:05:43;;;;;;;15.25;10.02;;;;;;;11.28;67.05;101733.06;3567842;40;20064;-66
2022/05/05 02:08:10;;;;;;;16.40;10.40;;;;;;;11.36;67.36;101741.66;3571036;40;20115;-65
2022/05/05 02:10:36;;;;;;;15.63;10.13;;;;;;;11.31;67.49;101730.22;3570725;40;20104;-65
2022/05/05 02:13:05;;;;;;;13.88;10.13;;;;;;;11.30;67.01;101720.41;3569149;40;20403;-64
2022/05/05 02:15:34;;;;;;;17.58;9.48;;;;;;;11.29;67.03;101723.16;3571500;40;20380;-66
2022/05/05 02:18:11;;;;;;;16.08;9.35;;;;;;;11.19;66.93;101701.22;3569993;40;20053;-66
2022/05/05 02:20:39;;;;;;;15.00;9.90;;;;;;;11.44;66.78;101743.06;3569972;40;20056;-65
2022/05/05 02:23:07;;;;;;;15.05;10.05;;;;;;;11.38;66.45;101742.44;3571619;40;20053;-66
2022/05/05 02:25:33;;;;;;;14.52;9.90;;;;;;;11.44;66.18;101743.94;3570168;40;20423;-65
2022/05/05 02:27:59;;;;;;;15.65;9.68;;;;;;;11.34;67.10;101722.00;3570384;40;20072;-66
2022/05/05 02:30:27;;;;;;;13.18;9.88;;;;;;;11.43;67.06;101731.44;3570378;40;20093;-66
2022/05/05 02:32:53;;;;;;;18.38;10.15;;;;;;;11.55;66.54;101740.72;3568909;40;20080;-65
2022/05/05 02:35:20;;;;;;;15.30;9.95;;;;;;;11.58;66.36;101743.25;3570530;40;20488;-65
2022/05/05 02:40:32;;;;;;;13.15;9.60;;;;;;;11.50;66.28;101732.84;3568738;40;20146;-65
2022/05/05 02:42:59;;;;;;;16.35;10.13;;;;;;;11.58;66.83;101740.56;3567209;40;20049;-65
2022/05/05 02:45:26;;;;;;;17.25;9.63;;;;;;;11.57;65.93;101728.88;3567894;40;20053;-66
2022/05/05 02:47:52;;;;;;;17.48;9.80;;;;;;;11.50;65.79;101726.59;3568905;40;20056;-65
2022/05/05 02:50:18;;;;;;;15.85;10.60;;;;;;;11.60;66.57;101744.03;3569794;40;20061;-66
2022/05/05 02:52:44;;;;;;;15.35;10.38;;;;;;;11.53;66.73;101721.94;3561784;40;20309;-66
2022/05/05 02:55:10;;;;;;;14.95;10.05;;;;;;;11.69;66.09;101738.16;3571108;40;20063;-66
2022/05/05 02:57:36;;;;;;;17.65;10.48;;;;;;;11.71;66.09;101738.09;3569497;40;20055;-65
2022/05/05 03:00:07;;;;;;;20.95;10.18;;;;;;;11.74;66.84;101741.50;3568461;40;20049;-65
2022/05/05 03:02:34;;;;;;;18.85;10.70;;;;;;;11.75;65.57;101736.97;3567449;40;20056;-66
2022/05/05 03:04:59;;;;;;;17.50;10.18;;;;;;;11.82;65.52;101741.94;3566806;40;20064;-66
2022/05/05 03:07:25;;;;;;;15.70;10.40;;;;;;;11.76;65.43;101726.09;3570141;40;20049;-65
2022/05/05 03:09:50;;;;;;;20.45;10.27;;;;;;;11.82;64.94;101741.09;3567770;40;20771;-65
2022/05/05 03:12:16;;;;;;;30.13;11.00;;;;;;;11.60;65.27;101699.09;3569160;40;20042;-65
2022/05/05 03:14:43;;;;;;;24.33;11.75;;;;;;;11.68;65.01;101720.28;3568239;40;20488;-66
2022/05/05 03:17:08;;;;;;;17.85;10.82;;;;;;;11.76;65.74;101733.31;3567787;40;20053;-66
2022/05/05 03:19:34;;;;;;;22.00;10.05;;;;;;;11.68;64.94;101731.03;3570801;40;20076;-65
2022/05/05 03:21:59;;;;;;;19.70;10.20;;;;;;;11.75;65.73;101732.47;3570385;40;20418;-66
2022/05/05 03:24:25;;;;;;;18.90;10.15;;;;;;;11.74;65.55;101733.41;3565687;40;20057;-65
2022/05/05 03:26:50;;;;;;;15.75;10.07;;;;;;;11.76;65.38;101739.56;3570785;40;20049;-66
2022/05/05 03:29:16;;;;;;;19.45;10.10;;;;;;;11.65;66.24;101717.75;3570254;40;20064;-65
2022/05/05 03:31:42;;;;;;;21.70;10.57;;;;;;;11.76;66.79;101742.28;3569152;40;20299;-66
2022/05/05 03:34:07;;;;;;;21.27;10.90;;;;;;;11.73;66.07;101744.25;3568046;40;20064;-66
2022/05/05 03:36:34;;;;;;;20.73;11.77;;;;;;;11.70;66.71;101745.28;3570369;40;20057;-66
2022/05/05 03:38:59;;;;;;;20.95;11.50;;;;;;;11.61;66.94;101729.63;3569854;40;20071;-66
2022/05/05 03:41:25;;;;;;;20.13;10.10;;;;;;;11.70;67.26;101731.81;3562605;40;20060;-66
2022/05/05 03:43:54;;;;;;;23.25;11.00;;;;;;;11.72;67.48;101735.31;3569826;40;20092;-66
2022/05/05 03:46:20;;;;;;;24.48;11.18;;;;;;;11.71;66.81;101720.13;3569842;40;20080;-66
2022/05/05 03:48:45;;;;;;;25.73;10.75;;;;;;;11.85;66.69;101744.53;3571058;40;20059;-65
2022/05/05 03:51:12;;;;;;;19.02;10.18;;;;;;;11.87;66.82;101749.84;3569992;40;20098;-65
2022/05/05 03:53:37;;;;;;;24.65;11.38;;;;;;;11.75;65.82;101734.28;3570695;40;20049;-65
2022/05/05 03:56:04;;;;;;;24.70;11.75;;;;;;;11.88;65.94;101758.78;3572299;40;20074;-67
2022/05/05 03:58:30;;;;;;;31.27;14.60;;;;;;;11.89;65.47;101757.84;3569719;40;20126;-66
2022/05/05 04:00:56;;;;;;;21.23;11.25;;;;;;;11.84;66.77;101747.28;3573113;40;20113;-65
2022/05/05 04:03:31;;;;;;;21.23;11.40;;;;;;;11.89;65.43;101760.53;3573249;40;20303;-65
2022/05/05 04:06:06;;;;;;;20.33;11.43;;;;;;;11.82;65.64;101752.72;3567901;40;20080;-66
2022/05/05 04:08:34;;;;;;;20.33;11.25;;;;;;;11.90;65.61;101768.53;3572678;40;20122;-65
2022/05/05 04:11:00;;;;;;;23.30;11.75;;;;;;;11.83;65.98;101753.63;3563817;40;20107;-66
2022/05/05 04:13:26;;;;;;;24.88;11.63;;;;;;;11.85;65.90;101757.13;3573017;40;20057;-66
2022/05/05 04:15:53;;;;;;;23.95;11.60;;;;;;;11.91;66.10;101777.50;3572237;40;20049;-67
2022/05/05 04:18:20;;;;;;;24.48;11.98;;;;;;;11.84;65.67;101758.94;3573872;40;20052;-68
2022/05/05 04:20:49;;;;;;;23.88;11.40;;;;;;;12.00;65.32;101774.31;3569019;40;20065;-66
2022/05/05 04:23:15;;;;;;;22.90;11.88;;;;;;;12.05;65.19;101774.94;3569787;40;20073;-67
2022/05/05 04:25:43;;;;;;;23.20;11.63;;;;;;;12.07;65.90;101775.72;3572584;40;20052;-67
2022/05/05 04:28:11;;;;;;;20.35;11.23;;;;;;;12.12;65.36;101773.69;3570855;40;20049;-67
2022/05/05 04:30:39;;;;;;;20.80;10.77;;;;;;;11.99;64.82;101753.72;3571295;40;20064;-66
2022/05/05 04:35:36;;;;;;;22.73;11.63;;;;;;;12.15;64.76;101781.59;3595985;39;20055;-61
2022/05/05 04:38:02;;;;;;;22.20;12.00;;;;;;;12.16;65.33;101779.78;3596724;39;20051;-60
2022/05/05 04:40:28;;;;;;;18.65;11.00;;;;;;;12.06;64.97;101768.63;3599390;39;20055;-61
2022/05/05 04:42:53;;;;;;;20.60;11.43;;;;;;;12.19;65.46;101787.69;3597806;39;20059;-61
2022/05/05 04:45:19;;;;;;;21.05;12.20;;;;;;;12.25;64.96;101788.25;3589119;39;20079;-60
2022/05/05 04:47:44;;;;;;;19.08;11.95;;;;;;;12.31;63.89;101774.44;3590376;39;20051;-61
2022/05/05 04:50:10;;;;;;;21.90;11.60;;;;;;;12.34;63.67;101789.56;3588886;39;20051;-60
2022/05/05 04:52:36;;;;;;;26.02;11.43;;;;;;;12.34;63.17;101789.56;3591454;39;20370;-63
2022/05/05 04:55:02;;;;;;;20.80;11.82;;;;;;;12.32;63.58;101797.72;3589327;40;20048;-63
2022/05/05 04:57:28;;;;;;;19.67;11.90;;;;;;;12.29;64.26;101797.91;3592428;40;20048;-60
2022/05/05 04:59:53;;;;;;;21.85;12.13;;;;;;;12.28;64.55;101798.84;3591467;40;20413;-61
2022/05/05 05:02:19;;;;;;;21.70;11.55;;;;;;;12.29;64.68;101799.72;3590393;40;20064;-63
2022/05/05 05:04:45;;;;;;;18.95;11.25;;;;;;;12.27;64.64;101802.53;3589353;40;20056;-61
2022/05/05 05:07:11;;;;;;;19.70;11.90;;;;;;;12.26;65.06;101802.59;3588143;39;20063;-63
2022/05/05 05:09:36;;;;;;;20.67;11.57;;;;;;;12.22;65.83;101809.97;3588915;39;20375;-61
2022/05/05 05:12:03;;;;;;;21.35;11.30;;;;;;;12.19;65.15;101802.03;3588710;40;20091;-61
2022/05/05 05:14:28;;;;;;;23.10;12.18;;;;;;;12.18;65.72;101805.69;3590409;39;20088;-63
2022/05/05 05:16:54;;;;;;;23.38;11.43;;;;;;;12.17;65.64;101808.47;3590465;39;20059;-63
2022/05/05 05:19:20;;;;;;;23.23;12.00;;;;;;;12.03;65.75;101779.56;3591719;39;20052;-61
2022/05/05 05:21:47;;;;;;;24.75;11.70;;;;;;;12.15;65.49;101816.66;3591302;39;20043;-63
2022/05/05 05:24:13;;;;;;;21.92;12.48;;;;;;;12.11;65.70;101815.03;3589883;39;20062;-61
2022/05/05 05:26:40;;;;;;;21.10;11.77;;;;;;;12.16;65.43;101817.50;3590917;39;20048;-61
2022/05/05 05:29:05;;;;;;;28.95;12.90;;;;;;;12.17;66.08;101820.09;3590273;39;20086;-63
2022/05/05 05:31:31;;;;;;;30.75;13.48;;;;;;;12.17;66.04;101824.63;3590178;39;20405;-60
2022/05/05 05:33:57;;;;;;;28.00;12.90;;;;;;;12.13;67.18;101832.00;3591261;39;20136;-61
2022/05/05 05:36:23;;;;;;;32.38;12.75;;;;;;;12.15;66.95;101822.03;3589710;39;20060;-61
2022/05/05 05:38:48;;;;;;;21.17;13.05;;;;;;;12.17;67.83;101825.50;3589804;39;20067;-61
2022/05/05 05:41:14;;;;;;;22.58;12.35;;;;;;;12.17;67.17;101821.94;3590146;39;20298;-61
2022/05/05 05:43:39;;;;;;;21.85;12.60;;;;;;;12.15;67.83;101831.94;3588008;39;20062;-61
2022/05/05 05:46:05;;;;;;;22.70;12.52;;;;;;;12.18;67.72;101829.97;3588166;39;20386;-61
2022/05/05 05:48:31;;;;;;;25.83;12.45;;;;;;;12.20;67.27;101827.16;3591003;39;20082;-62
2022/05/05 05:50:56;;;;;;;22.60;12.32;;;;;;;12.34;67.93;101832.72;3589448;39;20047;-62
2022/05/05 05:53:22;;;;;;;23.00;13.18;;;;;;;12.44;66.93;101833.09;3590570;39;20066;-62
2022/05/05 05:55:48;;;;;;;22.48;12.90;;;;;;;12.51;65.99;101838.06;3589402;39;20055;-62
2022/05/05 05:58:13;;;;;;;22.65;12.18;;;;;;;12.60;65.74;101839.41;3588692;39;20383;-62
2022/05/05 06:00:39;;;;;;;29.55;12.82;;;;;;;12.68;64.87;101837.13;3588192;40;20055;-61
2022/05/05 06:05:51;;;;;;;24.55;13.18;;;;;;;12.85;64.52;101843.47;3588763;40;20311;-61
2022/05/05 06:08:17;;;;;;;28.17;13.63;;;;;;;12.88;64.63;101844.16;3588597;39;20051;-60
2022/05/05 06:10:43;;;;;;;24.95;12.88;;;;;;;13.01;63.36;101849.75;3589376;39;20059;-61
2022/05/05 06:13:09;;;;;;;23.55;13.02;;;;;;;13.07;62.81;101852.13;3588890;39;20296;-61
2022/05/05 06:15:35;;;;;;;25.10;14.63;;;;;;;13.15;63.19;101851.66;3592089;39;20048;-60
2022/05/05 06:18:00;;;;;;;25.05;14.15;;;;;;;13.24;62.98;101853.84;3581680;40;20063;-62
2022/05/05 06:20:26;;;;;;;21.88;13.23;;;;;;;13.33;61.55;101844.41;3592403;39;20052;-62
2022/05/05 06:22:52;;;;;;;22.67;13.35;;;;;;;13.45;60.13;101855.38;3591946;40;20056;-61
2022/05/05 06:25:20;;;;;;;24.92;14.00;;;;;;;13.47;60.28;101844.47;3594086;40;20059;-61
2022/05/05 06:27:48;;;;;;;23.90;13.48;;;;;;;13.55;60.72;101842.19;3589709;40;20044;-61
2022/05/05 06:30:14;;;;;;;21.38;12.93;;;;;;;13.77;60.12;101855.34;3591702;39;20144;-61
2022/05/05 06:32:40;;;;;;;24.58;12.75;;;;;;;13.94;59.54;101854.31;3582156;39;20052;-62
2022/05/05 06:35:07;;;;;;;26.08;12.65;;;;;;;14.13;58.32;101863.06;3591460;39;20388;-61
2022/05/05 06:37:33;;;;;;;19.38;12.02;;;;;;;14.32;56.70;101856.56;3592533;39;20371;-61
2022/05/05 06:40:00;;;;;;;21.45;12.48;;;;;;;14.51;56.00;101856.31;3592739;39;20060;-61
2022/05/05 06:42:30;;;;;;;23.98;12.98;;;;;;;14.55;55.71;101826.25;3592551;39;20047;-61
2022/05/05 06:44:56;;;;;;;20.85;12.48;;;;;;;14.89;54.46;101850.34;3588212;39;20055;-60
2022/05/05 06:47:22;;;;;;;17.00;12.45;;;;;;;15.04;53.84;101847.53;3591055;39;20528;-62
2022/05/05 06:49:48;;;;;;;20.67;13.05;;;;;;;15.33;52.36;101861.03;3590188;40;20066;-61
2022/05/05 06:52:13;;;;;;;18.08;12.15;;;;;;;15.59;52.08;101863.84;3589641;39;20260;-62
2022/05/05 06:54:39;;;;;;;19.15;12.43;;;;;;;15.82;52.48;101860.50;3587473;39;20072;-61
2022/05/05 06:57:05;;;;;;;25.27;16.75;;;;;;;15.97;52.27;101858.59;3579228;40;20056;-62
2022/05/05 06:59:31;;;;;;;34.70;21.73;;;;;;;16.09;52.26;101870.47;3593238;39;20047;-60
2022/05/05 07:02:02;;;;;;;32.88;24.40;;;;;;;16.07;53.02;101877.81;3589829;39;21714;-61
2022/05/05 07:07:19;;;;;;;40.95;26.15;;;;;;;16.07;54.46;101872.38;3591803;39;20118;-61
2022/05/05 07:12:33;;;;;;;43.35;27.77;;;;;;;16.17;54.57;101876.22;3591174;39;20304;-62
2022/05/05 07:14:59;;;;;;;43.60;28.52;;;;;;;16.44;54.90;101871.59;3590518;39;20141;-62
2022/05/05 07:17:26;;;;;;;40.45;26.23;;;;;;;16.81;53.07;101887.16;3581265;39;20051;-62
2022/05/05 07:19:52;;;;;;;39.67;28.20;;;;;;;17.08;52.55;101889.75;3591979;39;20298;-62
2022/05/05 07:22:19;;;;;;;46.55;28.85;;;;;;;17.30;52.06;101892.63;3593171;39;20052;-61
2022/05/05 07:24:46;;;;;;;37.78;26.33;;;;;;;17.28;51.75;101855.66;3591345;39;20400;-62
2022/05/05 07:27:12;;;;;;;43.95;27.90;;;;;;;17.68;51.47;101891.66;3592088;39;20060;-61
2022/05/05 07:29:39;;;;;;;38.95;27.88;;;;;;;17.90;50.88;101901.81;3591604;39;20055;-62
2022/05/05 07:32:05;;;;;;;46.67;31.00;;;;;;;17.75;50.30;101863.00;3594204;39;20055;-62
2022/05/05 07:34:31;;;;;;;47.75;32.17;;;;;;;17.88;50.20;101859.38;3593778;39;20353;-62
2022/05/05 07:36:57;;;;;;;48.88;33.15;;;;;;;18.07;49.38;101878.75;3592655;39;20130;-62
2022/05/05 07:39:22;;;;;;;46.70;33.28;;;;;;;18.26;49.63;101906.28;3594419;39;20083;-62
2022/05/05 07:41:49;;;;;;;50.38;33.78;;;;;;;18.40;48.76;101902.50;3593112;39;20074;-61
2022/05/05 07:44:15;;;;;;;44.53;31.90;;;;;;;18.52;48.59;101897.94;3593395;39;20321;-62
2022/05/05 07:46:42;;;;;;;45.03;30.45;;;;;;;18.59;48.37;101893.78;3592929;39;20331;-62
2022/05/05 07:49:07;;;;;;;38.40;26.77;;;;;;;18.83;48.74;101898.28;3592615;39;20059;-62
2022/05/05 07:51:34;;;;;;;40.30;28.70;;;;;;;18.83;48.60;101906.47;3593689;39;20074;-62
2022/05/05 07:56:45;;;;;;;41.75;29.50;;;;;;;18.76;48.33;101912.38;3585889;39;20582;-62
2022/05/05 07:59:11;;;;;;;43.30;30.05;;;;;;;18.94;48.55;101910.06;3593459;39;20048;-60
2022/05/05 08:01:38;;;;;;;46.33;29.33;;;;;;;19.20;48.08;101913.41;3593137;39;20055;-61
2022/05/05 08:04:05;;;;;;;40.38;29.13;;;;;;;19.43;47.45;101916.13;3593671;39;20152;-61
2022/05/05 08:06:33;;;;;;;39.00;26.88;;;;;;;19.32;46.64;101907.97;3594232;39;20067;-61
2022/05/05 08:08:59;;;;;;;38.88;28.92;;;;;;;19.17;45.67;101913.66;3591966;39;20060;-62
2022/05/05 08:11:25;;;;;;;33.53;25.45;;;;;;;19.15;45.93;101917.50;3593121;39;20081;-61
2022/05/05 08:13:52;;;;;;;42.42;28.85;;;;;;;19.25;46.58;101905.75;3592868;39;20048;-62
2022/05/05 08:16:18;;;;;;;39.40;28.35;;;;;;;19.25;45.52;101903.00;3593123;39;20052;-60
2022/05/05 08:18:44;;;;;;;36.75;26.10;;;;;;;19.37;46.79;101916.63;3593074;39;20079;-60
2022/05/05 08:21:10;;;;;;;35.05;26.83;;;;;;;19.47;47.54;101912.13;3594599;39;20048;-61
2022/05/05 08:23:37;;;;;;;37.70;26.85;;;;;;;19.70;47.48;101915.75;3593413;39;20059;-60
2022/05/05 08:28:47;;;;;;;34.90;26.40;;;;;;;19.60;45.47;101923.78;3592227;39;20050;-61
2022/05/05 08:31:13;;;;;;;36.03;26.60;;;;;;;19.56;44.72;101922.28;3593703;39;20401;-61
2022/05/05 08:33:39;;;;;;;40.97;26.40;;;;;;;19.55;45.82;101931.47;3594145;39;20053;-61
2022/05/05 08:36:07;;;;;;;39.40;27.58;;;;;;;19.42;44.62;101926.16;3593984;39;20055;-61
2022/05/05 08:38:33;;;;;;;35.92;26.38;;;;;;;19.34;45.68;101934.09;3593824;39;20063;-61
2022/05/05 08:41:02;;;;;;;40.13;29.10;;;;;;;19.19;48.07;101930.78;3592562;39;20051;-62
2022/05/05 08:43:28;;;;;;;45.88;30.02;;;;;;;19.02;48.02;101933.97;3591723;39;20055;-60
2022/05/05 08:45:58;;;;;;;40.25;28.38;;;;;;;19.05;46.77;101925.53;3595088;39;20058;-61
2022/05/05 08:48:24;;;;;;;38.20;28.00;;;;;;;19.00;47.66;101925.94;3591239;39;20051;-61
2022/05/05 08:50:58;;;;;;;37.65;27.65;;;;;;;18.86;46.92;101938.91;3592812;39;20064;-61
2022/05/05 08:53:35;;;;;;;41.17;27.75;;;;;;;18.82;47.99;101942.88;3593441;39;20055;-61
2022/05/05 08:56:03;;;;;;;39.00;28.00;;;;;;;18.75;48.45;101951.53;3592878;39;20047;-60
2022/05/05 08:58:30;;;;;;;41.17;27.60;;;;;;;18.71;46.93;101940.94;3594525;39;20064;-61
2022/05/05 09:00:55;;;;;;;40.88;29.05;;;;;;;18.66;48.11;101944.03;3591933;39;20076;-61
2022/05/05 09:03:21;;;;;;;41.33;27.80;;;;;;;18.59;48.49;101948.25;3593307;39;20078;-60
2022/05/05 09:05:53;;;;;;;45.58;31.60;;;;;;;18.55;49.43;101949.44;3593956;39;20247;-62
2022/05/05 09:08:30;;;;;;;42.95;30.50;;;;;;;18.49;49.86;101952.63;3593787;39;20056;-60
2022/05/05 09:11:05;;;;;;;42.92;30.92;;;;;;;18.50;49.63;101957.13;3592276;39;20067;-61
2022/05/05 09:13:34;;;;;;;41.25;28.83;;;;;;;18.45;49.25;101951.16;3593307;39;20598;-61
2022/05/05 09:16:03;;;;;;;40.95;28.92;;;;;;;18.43;49.82;101947.69;3593416;39;20067;-63
2022/05/05 09:18:32;;;;;;;41.33;28.60;;;;;;;18.39;49.34;101951.63;3593365;39;20051;-60
2022/05/05 09:21:06;;;;;;;39.05;29.50;;;;;;;18.28;49.82;101945.16;3594662;39;20044;-61
2022/05/05 09:23:36;;;;;;;40.95;29.67;;;;;;;17.93;49.92;101884.41;3591237;40;20063;-61
2022/05/05 09:26:10;;;;;;;45.75;30.45;;;;;;;18.37;50.54;101959.91;3593220;39;20060;-60
2022/05/05 09:28:36;;;;;;;43.00;28.58;;;;;;;18.37;49.15;101954.47;3595022;39;20047;-60
2022/05/05 09:31:08;;;;;;;41.75;29.42;;;;;;;18.45;49.27;101962.03;3595332;39;20302;-61
2022/05/05 09:33:34;;;;;;;39.70;28.48;;;;;;;18.42;48.83;101968.59;3593920;39;20059;-61
2022/05/05 09:36:02;;;;;;;38.53;28.73;;;;;;;18.29;48.48;101946.88;3579809;40;20048;-61
2022/05/05 09:38:56;;;;;;;38.42;28.63;;;;;;;18.41;50.80;101963.28;3593615;39;20310;-61
2022/05/05 09:41:25;;;;;;;41.22;29.45;;;;;;;18.47;49.36;101970.97;3592038;39;20079;-61
2022/05/05 09:44:00;;;;;;;38.85;28.48;;;;;;;18.52;48.67;101968.75;3591103;40;20367;-60
2022/05/05 09:46:36;;;;;;;41.05;30.25;;;;;;;18.68;49.29;101972.03;3589461;39;20067;-61
2022/05/05 09:49:18;;;;;;;41.05;29.85;;;;;;;18.33;49.33;101896.69;3591813;39;20137;-61
2022/05/05 09:57:46;;;;;;;43.35;30.45;;;;;;;19.00;48.45;101974.13;3559571;39;20124;-61
2022/05/05 10:00:43;;;;;;;42.88;29.92;;;;;;;19.08;47.33;101978.94;3589634;39;20116;-61
2022/05/05 10:05:56;;;;;;;40.65;29.92;;;;;;;19.11;46.89;101976.84;3591035;39;20092;-60
2022/05/05 10:08:40;;;;;;;45.80;32.30;;;;;;;18.84;47.18;101908.19;3590020;39;20059;-61
2022/05/05 10:11:07;;;;;;;40.60;29.00;;;;;;;19.51;46.78;101987.28;3591308;39;20070;-61
2022/05/05 10:13:37;;;;;;;39.08;28.25;;;;;;;19.65;45.56;101981.59;3591309;39;20068;-61
2022/05/05 10:16:04;;;;;;;39.55;28.60;;;;;;;19.74;46.00;101976.38;3590223;39;20146;-59
2022/05/05 10:18:38;;;;;;;35.28;28.10;;;;;;;19.84;45.53;101980.94;3587457;39;20349;-61
2022/05/05 10:21:14;;;;;;;36.72;29.33;;;;;;;19.95;44.91;101982.78;3590991;39;20075;-60
2022/05/05 10:24:10;;;;;;;36.20;28.25;;;;;;;20.13;44.38;101985.84;3593746;39;20068;-60
2022/05/05 10:26:38;;;;;;;38.20;27.15;;;;;;;20.27;43.81;101981.97;3590567;39;20063;-61
2022/05/05 10:29:03;;;;;;;41.13;31.70;;;;;;;20.34;45.19;101977.69;3593047;39;20054;-61
2022/05/05 10:31:33;;;;;;;41.47;30.52;;;;;;;20.41;46.25;101978.91;3592516;39;20048;-61
2022/05/05 10:34:07;;;;;;;41.10;30.17;;;;;;;20.37;44.26;101982.91;3627170;22;20074;-64
2022/05/05 10:36:35;;;;;;;39.85;29.65;;;;;;;20.39;44.81;101979.06;3602055;39;20305;-63
2022/05/05 10:39:19;;;;;;;37.70;28.25;;;;;;;20.48;43.93;101974.66;3601039;39;20052;-63
2022/05/05 10:41:46;;;;;;;37.08;28.00;;;;;;;20.56;44.76;101977.63;3600607;39;20072;-64
2022/05/05 10:44:19;;;;;;;36.65;29.20;;;;;;;20.50;45.02;101985.47;3598347;39;20596;-63
2022/05/05 10:47:02;;;;;;;38.88;29.15;;;;;;;20.46;42.93;101982.13;3592537;39;20052;-62
2022/05/05 10:49:33;;;;;;;40.22;30.40;;;;;;;20.62;45.54;101979.84;3591281;39;20059;-63
2022/05/05 10:52:13;;;;;;;37.70;29.00;;;;;;;20.77;43.13;101979.50;3591724;39;20098;-62
2022/05/05 10:54:46;;;;;;;37.42;29.15;;;;;;;20.85;44.54;101960.56;3591458;39;20060;-62
2022/05/05 10:57:23;;;;;;;39.20;30.23;;;;;;;21.07;43.42;101987.75;3587523;39;20058;-62
2022/05/05 11:00:07;;;;;;;37.95;29.15;;;;;;;20.99;43.67;101984.81;3587428;39;20056;-63
2022/05/05 11:02:35;;;;;;;38.95;28.95;;;;;;;21.16;41.99;101980.63;3591685;39;20047;-64
2022/05/05 11:05:24;;;;;;;35.03;27.80;;;;;;;21.17;42.44;101967.81;3590843;39;20108;-64
2022/05/05 11:07:51;;;;;;;33.50;28.40;;;;;;;21.36;41.76;101978.00;3592118;39;20056;-66
2022/05/05 11:11:39;;;;;;;38.33;27.83;;;;;;;21.40;42.87;101983.06;3584402;39;20043;-64
2022/05/05 11:13:47;;;;;;;39.40;28.60;;;;;;;21.49;41.21;101982.22;3593483;39;20036;-63
2022/05/05 11:22:13;;;;;;;33.13;25.67;;;;;;;22.17;38.73;101981.56;3590891;39;20079;-64
2022/05/05 11:24:46;;;;;;;32.78;25.85;;;;;;;22.13;39.25;101974.63;3592116;39;20056;-63
2022/05/05 11:27:20;;;;;;;34.47;26.33;;;;;;;22.26;41.82;101977.97;3591075;39;20044;-64
2022/05/05 11:29:52;;;;;;;31.65;25.58;;;;;;;22.46;39.89;101971.50;3591984;39;20140;-63
2022/05/05 11:32:22;;;;;;;31.00;24.90;;;;;;;22.57;38.85;101972.38;3590108;39;20051;-64
2022/05/05 11:34:49;;;;;;;30.20;23.75;;;;;;;22.85;38.34;101965.97;3591883;39;20056;-63
2022/05/05 11:37:15;;;;;;;30.90;25.75;;;;;;;23.11;38.05;101958.00;3584120;40;20394;-63
2022/05/05 11:39:41;;;;;;;35.33;25.75;;;;;;;23.04;37.83;101958.75;3591923;39;20058;-63
2022/05/05 11:42:10;;;;;;;36.83;26.45;;;;;;;23.14;39.62;101970.56;3592220;39;20123;-63
2022/05/05 11:44:39;;;;;;;33.70;25.45;;;;;;;23.34;37.81;101971.34;3593294;39;20374;-63
2022/05/05 11:47:32;;;;;;;31.73;24.92;;;;;;;23.64;36.71;101983.94;3593228;39;20060;-63
2022/05/05 11:49:59;;;;;;;30.50;24.88;;;;;;;23.78;36.06;101963.38;3591351;39;20075;-64
2022/05/05 11:52:26;;;;;;;32.65;26.75;;;;;;;23.73;36.29;101966.59;3591585;39;20062;-64
2022/05/05 11:54:55;;;;;;;34.00;26.80;;;;;;;23.36;36.95;101967.44;3591847;39;20052;-63